createdAt,value
2018-02-09T00:01:03.151Z,44.10
2018-02-09T00:03:29.440Z,45.80
2018-02-09T00:05:56.107Z,47.03
2018-02-09T00:08:22.499Z,45.85
2018-02-09T00:10:48.848Z,46.25
2018-02-09T00:13:15.159Z,46.78
2018-02-09T00:15:41.513Z,49.67
2018-02-09T00:18:07.903Z,50.60
2018-02-09T00:20:34.947Z,47.28
2018-02-09T00:23:01.260Z,52.15
2018-02-09T00:25:27.551Z,44.35
2018-02-09T00:27:54.216Z,47.30
2018-02-09T00:30:20.649Z,51.05
2018-02-09T00:32:46.939Z,50.20
2018-02-09T00:35:13.618Z,48.17
2018-02-09T00:37:39.948Z,44.15
2018-02-09T00:40:06.242Z,50.72
2018-02-09T00:42:33.012Z,45.35
2018-02-09T00:44:59.320Z,43.60
2018-02-09T00:47:25.634Z,44.22
2018-02-09T00:49:52.043Z,46.95
2018-02-09T00:52:19.026Z,50.08
2018-02-09T00:54:45.368Z,45.80
2018-02-09T00:57:11.725Z,49.15
2018-02-09T00:59:38.112Z,46.47
2018-02-09T01:02:04.415Z,48.00
2018-02-09T01:04:30.896Z,47.72
2018-02-09T01:06:57.248Z,46.50
2018-02-09T01:09:23.652Z,50.10
2018-02-09T01:11:49.987Z,47.80
2018-02-09T01:14:16.342Z,50.45
2018-02-09T01:16:42.710Z,51.35
2018-02-09T01:19:09.124Z,44.92
2018-02-09T01:21:35.415Z,45.58
2018-02-09T01:24:01.708Z,49.58
2018-02-09T01:26:28.747Z,45.92
2018-02-09T01:28:55.530Z,51.67
2018-02-09T01:31:21.919Z,48.13
2018-02-09T01:33:48.268Z,50.38
2018-02-09T01:36:15.296Z,50.25
2018-02-09T01:38:41.679Z,48.60
2018-02-09T01:41:08.649Z,53.80
2018-02-09T01:43:34.936Z,42.03
2018-02-09T01:46:01.242Z,52.00
2018-02-09T01:48:28.307Z,47.65
2018-02-09T01:50:55.367Z,43.80
2018-02-09T01:53:21.732Z,42.30
2018-02-09T01:55:48.159Z,45.83
2018-02-09T01:58:14.503Z,47.20
2018-02-09T02:00:40.860Z,47.40
2018-02-09T02:03:08.280Z,51.45
2018-02-09T02:05:34.616Z,47.25
2018-02-09T02:08:00.916Z,49.55
2018-02-09T02:10:27.210Z,42.20
2018-02-09T02:12:53.515Z,47.17
2018-02-09T02:15:19.835Z,43.83
2018-02-09T02:17:46.179Z,54.03
2018-02-09T02:20:12.536Z,46.20
2018-02-09T02:22:39.604Z,44.50
2018-02-09T02:25:06.746Z,44.83
2018-02-09T02:27:33.088Z,49.00
2018-02-09T02:29:59.398Z,47.65
2018-02-09T02:32:25.825Z,47.97
2018-02-09T02:34:52.873Z,49.05
2018-02-09T02:37:19.147Z,46.72
2018-02-09T02:39:45.500Z,49.67
2018-02-09T02:42:11.824Z,48.63
2018-02-09T02:44:38.112Z,47.05
2018-02-09T02:47:04.522Z,46.63
2018-02-09T02:49:30.852Z,45.45
2018-02-09T02:51:57.190Z,49.38
2018-02-09T02:54:23.888Z,46.08
2018-02-09T02:56:50.184Z,44.78
2018-02-09T02:59:16.514Z,47.03
2018-02-09T03:01:42.848Z,45.75
2018-02-09T03:04:09.164Z,47.62
2018-02-09T03:06:35.473Z,49.30
2018-02-09T03:09:01.924Z,45.00
2018-02-09T03:11:29.058Z,45.70
2018-02-09T03:13:55.370Z,45.22
2018-02-09T03:16:21.987Z,43.25
2018-02-09T03:18:48.332Z,45.72
2018-02-09T03:21:14.628Z,47.62
2018-02-09T03:23:40.936Z,49.22
2018-02-09T03:26:07.295Z,44.13
2018-02-09T03:28:34.187Z,46.97
2018-02-09T03:31:00.621Z,42.65
2018-02-09T03:33:26.925Z,48.87
2018-02-09T03:35:53.277Z,45.03
2018-02-09T03:38:19.583Z,40.38
2018-02-09T03:40:45.943Z,46.17
2018-02-09T03:43:12.991Z,45.72
2018-02-09T03:45:39.319Z,52.67
2018-02-09T03:48:06.599Z,44.90
2018-02-09T03:50:33.662Z,42.50
2018-02-09T03:53:00.692Z,44.72
2018-02-09T03:55:27.734Z,45.95
2018-02-09T03:57:54.043Z,46.60
2018-02-09T04:00:20.323Z,40.60
2018-02-09T04:02:46.673Z,45.60
2018-02-09T04:05:13.803Z,41.83
2018-02-09T04:07:40.227Z,41.78
2018-02-09T04:10:07.259Z,43.05
2018-02-09T04:12:34.344Z,48.67
2018-02-09T04:15:00.694Z,41.97
2018-02-09T04:17:27.015Z,46.45
2018-02-09T04:19:53.340Z,42.75
2018-02-09T04:22:19.639Z,45.53
2018-02-09T04:24:46.680Z,47.88
2018-02-09T04:27:13.813Z,42.85
2018-02-09T04:29:40.106Z,42.03
2018-02-09T04:32:06.431Z,42.35
2018-02-09T04:34:32.808Z,44.08
2018-02-09T04:36:59.123Z,43.00
2018-02-09T04:39:25.526Z,41.00
2018-02-09T04:41:51.863Z,41.45
2018-02-09T04:44:18.221Z,42.70
2018-02-09T04:46:44.515Z,42.72
2018-02-09T04:49:10.835Z,41.25
2018-02-09T04:51:37.986Z,42.22
2018-02-09T04:54:04.408Z,41.88
2018-02-09T04:56:31.488Z,43.00
2018-02-09T04:58:57.839Z,39.75
2018-02-09T05:01:24.142Z,42.78
2018-02-09T05:03:50.458Z,43.28
2018-02-09T05:06:16.845Z,43.42
2018-02-09T05:08:43.195Z,39.72
2018-02-09T05:11:09.503Z,42.75
2018-02-09T05:13:35.857Z,39.97
2018-02-09T05:16:02.907Z,40.80
2018-02-09T05:18:29.975Z,42.83
2018-02-09T05:20:57.039Z,42.78
2018-02-09T05:23:23.403Z,34.47
2018-02-09T05:25:49.735Z,39.33
2018-02-09T05:28:16.065Z,36.53
2018-02-09T05:30:42.369Z,39.22
2018-02-09T05:33:08.667Z,38.90
2018-02-09T05:35:35.735Z,43.17
2018-02-09T05:38:02.040Z,44.67
2018-02-09T05:40:29.083Z,38.35
2018-02-09T05:42:55.415Z,40.17
2018-02-09T05:45:22.464Z,39.10
2018-02-09T05:47:49.516Z,41.28
2018-02-09T05:50:16.557Z,35.42
2018-02-09T05:52:43.623Z,40.53
2018-02-09T05:55:10.080Z,40.00
2018-02-09T05:57:37.183Z,40.38
2018-02-09T06:00:04.303Z,40.40
2018-02-09T06:02:30.680Z,41.95
2018-02-09T06:04:57.817Z,41.50
2018-02-09T06:07:24.875Z,39.92
2018-02-09T06:09:51.945Z,38.75
2018-02-09T06:12:18.263Z,41.55
2018-02-09T06:14:45.288Z,40.38
2018-02-09T06:17:12.369Z,37.95
2018-02-09T06:19:38.683Z,42.10
2018-02-09T06:22:04.969Z,41.50
2018-02-09T06:24:31.308Z,45.22
2018-02-09T06:26:57.748Z,43.72
2018-02-09T06:29:24.883Z,37.20
2018-02-09T06:31:51.219Z,38.92
2018-02-09T06:34:17.518Z,39.28
2018-02-09T06:36:43.886Z,44.58
2018-02-09T06:39:10.187Z,41.40
2018-02-09T06:41:36.483Z,40.75
2018-02-09T06:44:03.616Z,44.58
2018-02-09T06:46:29.954Z,38.97
2018-02-09T06:48:57.027Z,42.58
2018-02-09T06:51:23.391Z,42.97
2018-02-09T06:53:49.692Z,41.40
2018-02-09T06:56:16.052Z,42.20
2018-02-09T06:58:43.487Z,40.17
2018-02-09T07:01:09.782Z,45.03
2018-02-09T07:03:36.073Z,37.60
2018-02-09T07:06:02.415Z,45.10
2018-02-09T07:08:28.730Z,39.47
2018-02-09T07:10:55.042Z,43.72
2018-02-09T07:13:22.421Z,36.80
2018-02-09T07:15:48.695Z,41.10
2018-02-09T07:18:14.973Z,44.08
2018-02-09T07:20:41.287Z,41.05
2018-02-09T07:23:07.799Z,42.15
2018-02-09T07:25:34.863Z,38.83
2018-02-09T07:28:01.191Z,41.78
2018-02-09T07:30:28.347Z,41.72
2018-02-09T07:32:54.647Z,43.25
2018-02-09T07:35:20.936Z,39.03
2018-02-09T07:37:47.263Z,35.85
2018-02-09T07:40:13.626Z,41.55
2018-02-09T07:42:40.026Z,38.47
2018-02-09T07:45:06.326Z,34.33
2018-02-09T07:47:32.789Z,38.78
2018-02-09T07:49:59.075Z,38.42
2018-02-09T07:52:26.194Z,37.25
2018-02-09T07:54:52.508Z,40.42
2018-02-09T07:57:18.856Z,40.35
2018-02-09T07:59:45.156Z,34.97
2018-02-09T08:02:11.431Z,38.20
2018-02-09T08:04:37.834Z,33.50
2018-02-09T08:07:04.196Z,38.67
2018-02-09T08:09:30.635Z,38.75
2018-02-09T08:11:56.968Z,36.88
2018-02-09T08:14:23.276Z,38.38
2018-02-09T08:16:49.577Z,43.13
2018-02-09T08:19:16.724Z,34.60
2018-02-09T08:21:43.007Z,32.33
2018-02-09T08:24:09.296Z,37.38
2018-02-09T08:26:35.595Z,35.92
2018-02-09T08:29:01.900Z,38.03
2018-02-09T08:31:29.079Z,35.80
2018-02-09T08:33:55.411Z,39.08
2018-02-09T08:36:21.784Z,39.40
2018-02-09T08:38:48.113Z,34.53
2018-02-09T08:41:14.451Z,38.70
2018-02-09T08:43:40.764Z,40.60
2018-02-09T08:46:07.164Z,35.33
2018-02-09T08:48:33.586Z,37.80
2018-02-09T08:51:00.672Z,42.60
2018-02-09T08:53:26.991Z,40.38
2018-02-09T08:55:53.384Z,39.17
2018-02-09T08:58:19.732Z,37.70
2018-02-09T09:00:46.031Z,36.85
2018-02-09T09:03:12.383Z,41.75
2018-02-09T09:05:39.473Z,38.95
2018-02-09T09:08:05.823Z,40.63
2018-02-09T09:10:32.150Z,38.20
2018-02-09T09:12:59.312Z,37.08
2018-02-09T09:15:25.639Z,38.38
2018-02-09T09:17:52.010Z,38.05
2018-02-09T09:20:19.089Z,41.80
2018-02-09T09:22:46.412Z,40.20
2018-02-09T09:25:12.780Z,38.72
2018-02-09T09:27:39.107Z,43.17
2018-02-09T09:30:05.463Z,42.42
2018-02-09T09:32:33.595Z,40.08
2018-02-09T09:35:00.044Z,40.35
2018-02-09T09:37:26.317Z,43.33
2018-02-09T09:39:52.616Z,41.30
2018-02-09T09:42:19.005Z,41.00
2018-02-09T09:44:46.169Z,43.15
2018-02-09T09:47:12.467Z,40.30
2018-02-09T09:49:39.540Z,41.40
2018-02-09T09:52:06.724Z,39.28
2018-02-09T09:54:32.991Z,39.72
2018-02-09T09:56:59.280Z,39.28
2018-02-09T09:59:25.569Z,38.53
2018-02-09T10:01:51.963Z,37.20
2018-02-09T10:04:18.230Z,44.95
2018-02-09T10:06:44.743Z,41.58
2018-02-09T10:09:11.109Z,42.22
2018-02-09T10:11:38.428Z,40.33
2018-02-09T10:14:04.755Z,39.15
2018-02-09T10:16:31.128Z,40.97
2018-02-09T10:18:57.521Z,43.20
2018-02-09T10:21:23.836Z,41.33
2018-02-09T10:23:50.155Z,44.33
2018-02-09T10:26:16.515Z,42.30
2018-02-09T10:28:42.827Z,40.00
2018-02-09T10:31:09.588Z,43.05
2018-02-09T10:33:36.734Z,40.17
2018-02-09T10:36:03.811Z,36.75
2018-02-09T10:38:30.322Z,38.83
2018-02-09T10:40:58.397Z,38.25
2018-02-09T10:43:24.719Z,36.08
2018-02-09T10:45:51.255Z,37.15
2018-02-09T10:48:17.564Z,38.08
2018-02-09T10:50:43.915Z,38.22
2018-02-09T10:53:11.188Z,38.30
2018-02-09T10:55:37.636Z,38.70
2018-02-09T10:58:04.753Z,39.05
2018-02-09T11:00:37.363Z,38.20
2018-02-09T11:03:04.407Z,37.88
2018-02-09T11:05:30.720Z,37.15
2018-02-09T11:07:57.795Z,34.80
2018-02-09T11:10:30.774Z,37.53
2018-02-09T11:12:57.172Z,36.00
2018-02-09T11:15:23.506Z,33.20
2018-02-09T11:17:49.944Z,32.03
2018-02-09T11:20:16.244Z,39.85
2018-02-09T11:22:42.611Z,34.70
2018-02-09T11:25:08.908Z,36.13
2018-02-09T11:27:35.371Z,36.78
2018-02-09T11:30:01.703Z,35.03
2018-02-09T11:32:27.999Z,34.38
2018-02-09T11:34:54.397Z,36.45
2018-02-09T11:37:23.435Z,34.78
2018-02-09T11:39:50.705Z,34.90
2018-02-09T11:42:16.996Z,32.15
2018-02-09T11:44:44.147Z,34.08
2018-02-09T11:47:10.427Z,36.33
2018-02-09T11:49:36.755Z,34.88
2018-02-09T11:52:03.034Z,39.15
2018-02-09T11:54:29.408Z,35.72
2018-02-09T11:56:55.743Z,36.38
2018-02-09T11:59:22.145Z,35.20
2018-02-09T12:01:48.710Z,32.20
2018-02-09T12:04:15.007Z,34.75
2018-02-09T12:06:41.683Z,35.08
2018-02-09T12:09:08.112Z,38.20
2018-02-09T12:11:34.514Z,36.35
2018-02-09T12:14:00.844Z,32.33
2018-02-09T12:16:27.319Z,33.88
2018-02-09T12:18:53.619Z,33.85
2018-02-09T12:21:19.979Z,33.38
2018-02-09T12:23:46.335Z,31.75
2018-02-09T12:26:12.628Z,28.55
2018-02-09T12:28:38.964Z,29.58
2018-02-09T12:31:05.294Z,32.20
2018-02-09T12:33:31.939Z,34.08
2018-02-09T12:35:58.226Z,32.30
2018-02-09T12:38:24.515Z,29.33
2018-02-09T12:40:51.442Z,27.52
2018-02-09T12:43:17.928Z,26.95
2018-02-09T12:45:45.006Z,29.00
2018-02-09T12:48:11.404Z,30.37
2018-02-09T12:50:38.482Z,27.00
2018-02-09T12:53:04.787Z,32.22
2018-02-09T12:55:31.819Z,28.30
2018-02-09T12:57:58.847Z,31.45
2018-02-09T13:00:25.163Z,28.85
2018-02-09T13:02:51.476Z,30.23
2018-02-09T13:05:18.155Z,30.77
2018-02-09T13:07:45.234Z,28.05
2018-02-09T13:10:12.139Z,32.42
2018-02-09T13:12:50.770Z,34.08
2018-02-09T13:15:17.044Z,30.70
2018-02-09T13:17:43.359Z,31.12
2018-02-09T13:20:09.663Z,31.17
2018-02-09T13:22:48.903Z,26.77
2018-02-09T13:25:15.453Z,30.92
2018-02-09T13:27:41.818Z,29.50
2018-02-09T13:30:08.949Z,29.42
2018-02-09T13:32:47.635Z,31.55
2018-02-09T13:35:14.074Z,30.88
2018-02-09T13:37:40.391Z,27.65
2018-02-09T13:40:06.851Z,30.10
2018-02-09T13:42:33.917Z,27.45
2018-02-09T13:45:00.356Z,31.12
2018-02-09T13:47:27.124Z,32.22
2018-02-09T13:49:53.407Z,28.98
2018-02-09T13:52:20.494Z,30.52
2018-02-09T13:54:47.598Z,27.62
2018-02-09T13:57:14.768Z,24.35
2018-02-09T13:59:41.056Z,21.10
2018-02-09T14:02:07.363Z,25.08
2018-02-09T14:04:33.747Z,26.45
2018-02-09T14:07:00.183Z,25.52
2018-02-09T14:09:27.283Z,24.92
2018-02-09T14:11:53.656Z,24.55
2018-02-09T14:14:20.036Z,22.10
2018-02-09T14:19:19.362Z,20.75
2018-02-09T14:21:45.727Z,15.60
2018-02-09T14:24:12.064Z,21.92
2018-02-09T14:26:38.341Z,18.60
2018-02-09T14:29:04.784Z,18.23
2018-02-09T14:31:31.206Z,20.10
2018-02-09T14:33:57.600Z,19.70
2018-02-09T14:36:23.954Z,18.27
2018-02-09T14:38:50.256Z,19.05
2018-02-09T14:41:16.570Z,18.00
2018-02-09T14:43:42.863Z,17.83
2018-02-09T14:46:09.167Z,19.02
2018-02-09T14:48:35.459Z,19.48
2018-02-09T14:51:01.824Z,18.02
2018-02-09T14:53:28.867Z,19.12
2018-02-09T14:55:55.908Z,17.98
2018-02-09T14:58:22.963Z,17.65
2018-02-09T15:00:50.003Z,17.75
2018-02-09T15:03:17.114Z,18.25
2018-02-09T15:05:43.416Z,17.35
2018-02-09T15:08:09.808Z,15.68
2018-02-09T15:10:36.182Z,15.07
2018-02-09T15:13:02.543Z,15.80
2018-02-09T15:15:28.898Z,15.13
2018-02-09T15:17:55.190Z,15.07
2018-02-09T15:20:21.541Z,16.90
2018-02-09T15:22:47.867Z,16.15
2018-02-09T15:25:14.248Z,15.23
2018-02-09T15:27:41.568Z,16.15
2018-02-09T15:30:08.703Z,15.35
2018-02-09T15:32:35.068Z,16.62
2018-02-09T15:35:01.411Z,15.45
2018-02-09T15:37:28.511Z,13.13
2018-02-09T15:39:54.914Z,14.55
2018-02-09T15:42:21.295Z,15.63
2018-02-09T15:44:47.621Z,14.60
2018-02-09T15:47:13.984Z,13.38
2018-02-09T15:49:40.386Z,14.40
2018-02-09T15:52:07.534Z,13.57
2018-02-09T15:54:33.849Z,13.38
2018-02-09T15:57:00.173Z,13.65
2018-02-09T15:59:26.534Z,11.63
2018-02-09T16:01:52.852Z,13.48
2018-02-09T16:04:19.160Z,13.35
2018-02-09T16:06:45.444Z,13.02
2018-02-09T16:09:12.526Z,13.95
2018-02-09T16:11:38.824Z,15.30
2018-02-09T16:14:06.043Z,16.60
2018-02-09T16:16:32.412Z,14.52
2018-02-09T16:18:58.731Z,14.13
2018-02-09T16:21:25.659Z,14.55
2018-02-09T16:23:51.956Z,17.77
2018-02-09T16:26:18.919Z,13.93
2018-02-09T16:28:45.223Z,13.98
2018-02-09T16:31:11.618Z,15.50
2018-02-09T16:33:37.903Z,13.55
2018-02-09T16:36:04.211Z,13.73
2018-02-09T16:38:30.556Z,14.68
2018-02-09T16:40:56.884Z,12.73
2018-02-09T16:43:23.198Z,15.18
2018-02-09T16:45:49.615Z,23.12
2018-02-09T16:48:16.084Z,13.10
2018-02-09T16:50:42.445Z,14.77
2018-02-09T16:53:08.875Z,12.20
2018-02-09T16:55:35.163Z,11.43
2018-02-09T16:58:01.473Z,14.00
2018-02-09T17:00:27.815Z,14.63
2018-02-09T17:02:54.159Z,14.57
2018-02-09T17:05:20.518Z,11.77
2018-02-09T17:07:46.888Z,12.13
2018-02-09T17:10:13.273Z,12.68
2018-02-09T17:12:39.647Z,14.20
2018-02-09T17:15:06.056Z,14.02
2018-02-09T17:17:32.359Z,13.38
2018-02-09T17:19:58.723Z,13.95
2018-02-09T17:22:25.074Z,14.30
2018-02-09T17:24:51.356Z,13.05
2018-02-09T17:27:17.720Z,13.48
2018-02-09T17:29:44.023Z,13.65
2018-02-09T17:32:10.347Z,12.20
2018-02-09T17:34:36.805Z,13.85
2018-02-09T17:37:03.856Z,12.27
2018-02-09T17:39:30.952Z,14.87
2018-02-09T17:41:58.283Z,12.37
2018-02-09T17:44:24.645Z,11.95
2018-02-09T17:46:50.967Z,12.75
2018-02-09T17:49:17.372Z,12.30
2018-02-09T17:51:43.639Z,11.65
2018-02-09T17:54:10.760Z,12.77
2018-02-09T17:56:37.083Z,14.10
2018-02-09T17:59:04.172Z,13.90
2018-02-09T18:01:30.564Z,12.60
2018-02-09T18:03:56.845Z,17.15
2018-02-09T18:06:23.204Z,14.30
2018-02-09T18:08:49.524Z,14.95
2018-02-09T18:11:16.290Z,13.85
2018-02-09T18:13:43.352Z,13.55
2018-02-09T18:16:10.801Z,14.02
2018-02-09T18:18:37.127Z,12.65
2018-02-09T18:21:03.592Z,14.73
2018-02-09T18:23:30.085Z,12.65
2018-02-09T18:25:57.160Z,12.90
2018-02-09T18:28:24.964Z,15.25
2018-02-09T18:30:51.266Z,24.98
2018-02-09T18:33:18.135Z,14.82
2018-02-09T18:35:44.653Z,12.23
2018-02-09T18:38:11.005Z,13.25
2018-02-09T18:40:37.595Z,14.77
2018-02-09T18:43:03.942Z,13.23
2018-02-09T18:45:30.295Z,12.45
2018-02-09T18:47:56.645Z,14.40
2018-02-09T18:50:23.083Z,12.27
2018-02-09T18:52:49.479Z,14.63
2018-02-09T18:55:15.937Z,11.18
2018-02-09T18:57:43.871Z,11.98
2018-02-09T19:00:10.215Z,12.65
2018-02-09T19:02:37.267Z,11.60
2018-02-09T19:05:03.579Z,12.80
2018-02-09T19:07:29.912Z,12.60
2018-02-09T19:09:56.987Z,13.60
2018-02-09T19:12:23.518Z,12.57
2018-02-09T19:14:49.870Z,13.10
2018-02-09T19:17:16.252Z,10.98
2018-02-09T19:19:43.931Z,11.73
2018-02-09T19:22:10.293Z,13.02
2018-02-09T19:24:36.677Z,14.27
2018-02-09T19:27:03.464Z,12.90
2018-02-09T19:29:29.885Z,13.23
2018-02-09T19:31:56.196Z,11.93
2018-02-09T19:34:23.295Z,12.60
2018-02-09T19:36:50.083Z,12.50
2018-02-09T19:39:18.144Z,10.68
2018-02-09T19:41:44.548Z,11.93
2018-02-09T19:44:10.861Z,14.02
2018-02-09T19:46:37.194Z,13.55
2018-02-09T19:49:03.598Z,12.48
2018-02-09T19:51:29.944Z,11.93
2018-02-09T19:53:56.283Z,12.45
2018-02-09T19:56:22.616Z,11.98
2018-02-09T19:58:49.072Z,15.02
2018-02-09T20:01:16.366Z,12.60
2018-02-09T20:03:43.992Z,13.82
2018-02-09T20:06:11.046Z,14.05
2018-02-09T20:08:38.133Z,12.10
2018-02-09T20:11:06.260Z,12.55
2018-02-09T20:13:33.455Z,14.50
2018-02-09T20:16:00.084Z,14.35
2018-02-09T20:18:26.475Z,14.50
2018-02-09T20:20:52.832Z,15.00
2018-02-09T20:23:20.005Z,16.02
2018-02-09T20:25:47.244Z,16.52
2018-02-09T20:28:13.644Z,13.23
2018-02-09T20:30:39.951Z,14.50
2018-02-09T20:33:06.275Z,15.68
2018-02-09T20:35:32.584Z,15.15
2018-02-09T20:38:00.087Z,15.45
2018-02-09T20:40:26.736Z,14.80
2018-02-09T20:42:53.039Z,15.90
2018-02-09T20:45:19.458Z,15.70
2018-02-09T20:47:45.802Z,15.15
2018-02-09T20:50:12.159Z,12.88
2018-02-09T20:52:38.540Z,16.00
2018-02-09T20:55:04.981Z,13.45
2018-02-09T20:57:31.287Z,16.10
2018-02-09T20:59:58.393Z,16.15
2018-02-09T21:02:25.633Z,14.85
2018-02-09T21:04:52.906Z,17.85
2018-02-09T21:07:19.270Z,14.52
2018-02-09T21:09:45.649Z,15.82
2018-02-09T21:12:12.027Z,16.50
2018-02-09T21:14:38.423Z,14.00
2018-02-09T21:17:04.710Z,17.75
2018-02-09T21:19:31.748Z,15.48
2018-02-09T21:21:58.062Z,16.60
2018-02-09T21:24:24.558Z,16.37
2018-02-09T21:26:50.882Z,17.08
2018-02-09T21:29:17.183Z,15.70
2018-02-09T21:31:44.392Z,17.37
2018-02-09T21:34:10.775Z,15.88
2018-02-09T21:36:37.818Z,16.98
2018-02-09T21:39:04.320Z,17.45
2018-02-09T21:41:30.731Z,15.73
2018-02-09T21:43:57.088Z,16.87
2018-02-09T21:46:23.473Z,17.30
2018-02-09T21:48:50.032Z,16.48
2018-02-09T21:51:16.397Z,16.65
2018-02-09T21:53:43.508Z,17.60
2018-02-09T21:56:09.840Z,17.08
2018-02-09T21:58:36.191Z,17.60
2018-02-09T22:01:02.530Z,18.27
2018-02-09T22:03:28.872Z,17.98
2018-02-09T22:05:55.260Z,18.02
2018-02-09T22:08:21.651Z,20.58
2018-02-09T22:10:49.808Z,16.83
2018-02-09T22:13:16.918Z,18.77
2018-02-09T22:15:44.305Z,18.08
2018-02-09T22:18:10.662Z,18.95
2018-02-09T22:20:36.942Z,19.17
2018-02-09T22:23:03.367Z,18.17
2018-02-09T22:25:29.733Z,21.33
2018-02-09T22:27:56.052Z,18.33
2018-02-09T22:30:22.363Z,20.00
2018-02-09T22:32:48.648Z,18.67
2018-02-09T22:35:15.691Z,19.42
2018-02-09T22:37:42.842Z,18.90
2018-02-09T22:40:09.219Z,16.73
2018-02-09T22:42:35.523Z,18.48
2018-02-09T22:45:01.856Z,17.67
2018-02-09T22:47:28.163Z,19.48
2018-02-09T22:49:54.540Z,19.75
2018-02-09T22:52:20.903Z,19.23
2018-02-09T22:54:47.264Z,19.33
2018-02-09T22:57:13.564Z,17.55
2018-02-09T22:59:40.302Z,19.50
2018-02-09T23:02:06.659Z,20.10
2018-02-09T23:04:33.707Z,19.10
2018-02-09T23:07:00.177Z,18.33
2018-02-09T23:09:26.539Z,19.25
2018-02-09T23:11:52.920Z,17.35
2018-02-09T23:14:20.020Z,21.30
2018-02-09T23:16:46.351Z,19.02
2018-02-09T23:19:13.416Z,18.65
2018-02-09T23:21:41.278Z,17.87
2018-02-09T23:24:07.578Z,18.87
2018-02-09T23:26:34.001Z,22.42
2018-02-09T23:29:00.479Z,18.30
2018-02-09T23:31:26.863Z,19.65
2018-02-09T23:33:54.209Z,18.65
2018-02-09T23:36:20.664Z,18.77
2018-02-09T23:38:46.966Z,20.30
2018-02-09T23:41:14.002Z,20.05
2018-02-09T23:43:40.271Z,21.10
2018-02-09T23:46:06.600Z,21.65
2018-02-09T23:48:34.105Z,20.77
2018-02-09T23:51:00.708Z,19.75
2018-02-09T23:53:27.746Z,20.05
2018-02-09T23:55:54.115Z,18.20
2018-02-09T23:58:21.489Z,19.12
